International Virtual Aviation Organisation

Eastern Europe and Northern Asia MCD

 
URWI 110300Z AUTO 05002MPS 3900 // 07/06 Q1018
QNH:(hPa/inHg/mmHg)1018 / 30.06 / 764
QFE:(hPa/inHg/mmHg)999 / 29.51 / 750
Temperature7
Dew Point6
Visibility3900
Weather
Cloud Cover
Transition Height900 m./3500 ft.
Transition LevelFL50
SQUAWK